Time;durP1;ratioP1;P1;durP2;ratioP2;P2;SDS_P1;SDS_P2;PMS_P1;PMS_P2;Temp;Humidity;BMP_temperature;BMP_pressure;BME280_temperature;BME280_humidity;BME280_pressure;Samples;Min_cycle;Max_cycle;Signal;HPM_P1;HPM_P2
2020/12/27 00:01:28;;;;;;;;;;;;;;;8.67;60.90;99892.44;4901930;29;19927;-90
2020/12/27 00:03:55;;;;;;;;;;;;;;;8.68;60.37;99886.25;4903522;29;20061;-90
2020/12/27 00:06:25;;;;;;;;;;;;;;;8.68;60.86;99878.34;4904172;29;20447;-90
2020/12/27 00:08:52;;;;;;;;;;;;;;;8.70;60.69;99870.38;4903067;29;19962;-89
2020/12/27 00:11:20;;;;;;;;;;;;;;;8.71;60.45;99880.03;4900592;29;19931;-91
2020/12/27 00:13:47;;;;;;;;;;;;;;;8.69;60.26;99866.00;4901833;29;19934;-91
2020/12/27 00:16:15;;;;;;;;;;;;;;;8.68;61.08;99862.53;4907095;29;19935;-90
2020/12/27 00:18:42;;;;;;;;;;;;;;;8.65;60.33;99859.97;4904718;29;19935;-89
2020/12/27 00:21:12;;;;;;;;;;;;;;;8.62;60.56;99858.31;4906123;29;20246;-90
2020/12/27 00:23:39;;;;;;;;;;;;;;;8.62;60.83;99858.31;4899387;29;20022;-89
2020/12/27 00:26:09;;;;;;;;;;;;;;;8.63;60.53;99840.72;4900576;29;19935;-89
2020/12/27 00:28:37;;;;;;;;;;;;;;;8.59;60.69;99845.22;4902617;29;20389;-89
2020/12/27 00:31:04;;;;;;;;;;;;;;;8.57;60.72;99836.50;4903642;29;19952;-90
2020/12/27 00:33:32;;;;;;;;;;;;;;;8.56;60.86;99831.28;4903389;29;20283;-90
2020/12/27 00:36:06;;;;;;;;;;;;;;;8.57;60.76;99838.28;4908873;29;19935;-90
2020/12/27 00:38:33;;;;;;;;;;;;;;;8.57;60.57;99825.94;4899592;29;20046;-89
2020/12/27 00:41:00;;;;;;;;;;;;;;;8.54;60.82;99833.13;4902764;29;19963;-89
2020/12/27 00:43:30;;;;;;;;;;;;;;;8.55;61.18;99830.44;4904867;29;19931;-89
2020/12/27 00:45:58;;;;;;;;;;;;;;;8.50;60.99;99827.09;4906941;29;19931;-89
2020/12/27 00:48:28;;;;;;;;;;;;;;;8.48;60.85;99828.91;4907457;29;19927;-90
2020/12/27 00:50:55;;;;;;;;;;;;;;;8.49;60.83;99824.50;4919825;29;21104;-90
2020/12/27 00:53:22;;;;;;;;;;;;;;;8.47;60.95;99824.56;4904564;29;19931;-90
2020/12/27 00:55:49;;;;;;;;;;;;;;;8.47;60.97;99814.03;4902019;29;20498;-90
2020/12/27 00:58:17;;;;;;;;;;;;;;;8.43;61.14;99799.16;4890464;29;19977;-90
2020/12/27 01:00:49;;;;;;;;;;;;;;;8.42;61.11;99797.47;4887430;29;19936;-89
2020/12/27 01:03:19;;;;;;;;;;;;;;;8.39;61.48;99787.00;4894983;29;20411;-89
2020/12/27 01:06:09;;;;;;;;;;;;;;;8.42;61.72;99761.41;4886462;29;20051;-91
2020/12/27 01:08:37;;;;;;;;;;;;;;;8.44;61.02;99766.63;4884538;29;19927;-90
2020/12/27 01:11:10;;;;;;;;;;;;;;;8.47;60.94;99758.66;4889420;29;19983;-89
2020/12/27 01:13:39;;;;;;;;;;;;;;;8.52;60.73;99759.34;4890798;29;20479;-90
2020/12/27 01:16:10;;;;;;;;;;;;;;;8.54;60.97;99748.78;4891243;29;19935;-90
2020/12/27 01:18:39;;;;;;;;;;;;;;;8.57;61.35;99751.28;4889929;29;21041;-88
2020/12/27 01:21:06;;;;;;;;;;;;;;;8.58;61.16;99740.69;4901080;29;19932;-89
2020/12/27 01:23:32;;;;;;;;;;;;;;;8.61;60.63;99739.72;4890053;29;20392;-89
2020/12/27 01:25:59;;;;;;;;;;;;;;;8.63;60.54;99732.63;4905962;29;19931;-88
2020/12/27 01:28:26;;;;;;;;;;;;;;;8.66;60.62;99726.38;4889497;29;20003;-89
2020/12/27 01:31:03;;;;;;;;;;;;;;;8.72;60.64;99724.38;4888533;29;19942;-90
2020/12/27 01:33:37;;;;;;;;;;;;;;;8.69;60.44;99713.94;4902782;29;19931;-90
2020/12/27 01:36:05;;;;;;;;;;;;;;;8.73;60.37;99712.06;4897312;29;20401;-89
2020/12/27 01:38:33;;;;;;;;;;;;;;;8.76;60.56;99699.63;4904652;29;19935;-88
2020/12/27 01:41:03;;;;;;;;;;;;;;;8.74;60.74;99687.41;4890284;29;20026;-88
2020/12/27 01:43:36;;;;;;;;;;;;;;;8.76;60.48;99688.19;4874729;29;20014;-89
2020/12/27 01:46:05;;;;;;;;;;;;;;;8.76;60.70;99689.06;4907099;29;20274;-89
2020/12/27 01:48:32;;;;;;;;;;;;;;;8.75;60.13;99682.06;4882828;29;19935;-89
2020/12/27 01:51:03;;;;;;;;;;;;;;;8.74;60.66;99675.06;4887093;29;19935;-91
2020/12/27 01:53:53;;;;;;;;;;;;;;;8.75;60.82;99670.69;4894259;29;20444;-87
2020/12/27 01:56:41;;;;;;;;;;;;;;;8.75;60.37;99660.13;4906611;29;19938;-90
2020/12/27 01:59:17;;;;;;;;;;;;;;;8.76;60.21;99665.34;4907125;29;20030;-90
2020/12/27 02:01:49;;;;;;;;;;;;;;;8.76;60.80;99638.97;4900015;29;19934;-90
2020/12/27 02:04:37;;;;;;;;;;;;;;;8.80;59.99;99645.84;4903933;29;19942;-91
2020/12/27 02:07:05;;;;;;;;;;;;;;;8.77;60.53;99642.47;4904070;29;20307;-89
2020/12/27 02:09:55;;;;;;;;;;;;;;;8.77;60.77;99635.44;4905557;29;19928;-90
2020/12/27 02:12:25;;;;;;;;;;;;;;;8.76;60.77;99627.53;4904995;29;19942;-90
2020/12/27 02:14:54;;;;;;;;;;;;;;;8.77;60.80;99624.88;4901742;29;20404;-89
2020/12/27 02:17:29;;;;;;;;;;;;;;;8.79;60.30;99616.91;4910303;29;20027;-88
2020/12/27 02:20:04;;;;;;;;;;;;;;;8.76;60.06;99611.72;4907335;29;20928;-89
2020/12/27 02:22:52;;;;;;;;;;;;;;;8.78;60.34;99615.19;4905593;29;19927;-89
2020/12/27 02:25:41;;;;;;;;;;;;;;;8.77;60.20;99602.91;4903236;29;19935;-88
2020/12/27 02:28:19;;;;;;;;;;;;;;;8.76;60.31;99603.81;4903765;29;19941;-88
2020/12/27 02:30:47;;;;;;;;;;;;;;;8.74;60.71;99590.69;4895959;29;20539;-88
2020/12/27 02:33:15;;;;;;;;;;;;;;;8.73;60.73;99574.94;4903195;29;19938;-88
2020/12/27 02:35:46;;;;;;;;;;;;;;;8.75;60.34;99578.38;4903798;29;19955;-88
2020/12/27 02:38:18;;;;;;;;;;;;;;;8.73;60.99;99567.91;4905529;29;20003;-89
2020/12/27 02:40:47;;;;;;;;;;;;;;;8.73;60.75;99556.47;4901596;29;19942;-88
2020/12/27 02:43:47;;;;;;;;;;;;;;;8.72;60.09;99558.28;4899022;29;20403;-88
2020/12/27 02:46:19;;;;;;;;;;;;;;;8.70;60.17;99540.78;4897661;29;20045;-88
2020/12/27 02:49:11;;;;;;;;;;;;;;;8.68;60.69;99542.63;4879403;29;20034;-88
2020/12/27 02:51:38;;;;;;;;;;;;;;;8.68;60.21;99540.84;4904408;29;19931;-88
2020/12/27 02:54:06;;;;;;;;;;;;;;;8.65;60.76;99530.41;4902374;29;20375;-89
2020/12/27 02:56:35;;;;;;;;;;;;;;;8.67;60.74;99525.94;4901230;29;19942;-88
2020/12/27 02:59:04;;;;;;;;;;;;;;;8.65;60.53;99511.94;4911331;29;20037;-89
2020/12/27 03:01:32;;;;;;;;;;;;;;;8.65;60.30;99514.59;4904047;29;19931;-89
2020/12/27 03:04:14;;;;;;;;;;;;;;;8.63;60.56;99516.44;4908085;29;19942;-89
2020/12/27 03:06:44;;;;;;;;;;;;;;;8.64;60.20;99511.09;4904830;29;20026;-89
2020/12/27 03:09:20;;;;;;;;;;;;;;;8.61;60.71;99503.31;4904271;29;20348;-89
2020/12/27 03:12:08;;;;;;;;;;;;;;;8.59;60.97;99502.50;4898300;29;19978;-89
2020/12/27 03:14:35;;;;;;;;;;;;;;;8.58;60.64;99510.50;4897068;29;19937;-89
2020/12/27 03:17:24;;;;;;;;;;;;;;;8.58;60.86;99494.69;4907845;29;19935;-88
2020/12/27 03:19:58;;;;;;;;;;;;;;;8.57;60.64;99482.41;4903813;29;19935;-87
2020/12/27 03:22:30;;;;;;;;;;;;;;;8.55;60.79;99478.97;4905693;29;19935;-87
2020/12/27 03:25:17;;;;;;;;;;;;;;;8.56;61.24;99459.59;4899985;29;19950;-88
2020/12/27 03:27:46;;;;;;;;;;;;;;;8.52;61.20;99452.72;4902099;29;19935;-88
2020/12/27 03:30:14;;;;;;;;;;;;;;;8.52;61.01;99450.09;4901699;29;19935;-89
2020/12/27 03:32:42;;;;;;;;;;;;;;;8.54;60.92;99448.28;4904031;29;19966;-89
2020/12/27 03:35:09;;;;;;;;;;;;;;;8.51;60.82;99448.38;4903627;29;19939;-89
2020/12/27 03:37:37;;;;;;;;;;;;;;;8.52;60.39;99445.66;4904333;29;19931;-89
2020/12/27 03:40:36;;;;;;;;;;;;;;;8.47;60.68;99439.75;4896439;29;19927;-89
2020/12/27 03:43:19;;;;;;;;;;;;;;;8.47;61.00;99435.31;4917439;29;20020;-89
2020/12/27 03:45:47;;;;;;;;;;;;;;;8.45;61.41;99426.59;4903097;29;19978;-89
2020/12/27 03:48:32;;;;;;;;;;;;;;;8.49;60.66;99434.41;4904154;29;19954;-89
2020/12/27 03:51:30;;;;;;;;;;;;;;;8.50;60.91;99426.44;4901661;29;19950;-90
2020/12/27 03:53:57;;;;;;;;;;;;;;;8.51;60.85;99417.63;4881909;29;20062;-88
2020/12/27 03:56:44;;;;;;;;;;;;;;;8.57;60.64;99419.16;4845271;29;20014;-89
2020/12/27 03:59:32;;;;;;;;;;;;;;;8.58;60.69;99426.13;4886490;29;19931;-88
2020/12/27 04:02:05;;;;;;;;;;;;;;;8.61;60.42;99410.19;4869625;29;19947;-89
2020/12/27 04:04:32;;;;;;;;;;;;;;;8.63;60.46;99417.13;4886806;29;19927;-88
2020/12/27 04:07:06;;;;;;;;;;;;;;;8.67;60.92;99409.94;4878358;29;19990;-88
2020/12/27 04:09:48;;;;;;;;;;;;;;;8.71;60.80;99411.53;4868609;29;19936;-88
2020/12/27 04:12:16;;;;;;;;;;;;;;;8.72;60.83;99415.00;4870446;29;20034;-88
2020/12/27 04:14:47;;;;;;;;;;;;;;;8.73;60.64;99420.25;4872738;29;19927;-89
2020/12/27 04:17:20;;;;;;;;;;;;;;;8.74;60.77;99418.47;4886066;29;19931;-89
2020/12/27 04:19:47;;;;;;;;;;;;;;;8.75;60.49;99414.91;4889764;29;19931;-88
2020/12/27 04:22:16;;;;;;;;;;;;;;;8.77;60.02;99402.50;4868124;29;19984;-88
2020/12/27 04:24:59;;;;;;;;;;;;;;;8.79;60.49;99395.41;4870553;29;19983;-89
2020/12/27 04:27:25;;;;;;;;;;;;;;;8.78;60.13;99378.69;4873740;29;19931;-89
2020/12/27 04:29:54;;;;;;;;;;;;;;;8.82;60.52;99375.94;4873361;29;19938;-88
2020/12/27 04:32:33;;;;;;;;;;;;;;;8.78;60.61;99368.16;4873140;29;20297;-87
2020/12/27 04:35:17;;;;;;;;;;;;;;;8.78;60.12;99362.03;4883792;29;19931;-90
2020/12/27 04:37:52;;;;;;;;;;;;;;;8.80;60.21;99368.13;4865542;29;19936;-89
2020/12/27 04:40:30;;;;;;;;;;;;;;;8.79;59.86;99366.38;4872521;29;20026;-89
2020/12/27 04:43:01;;;;;;;;;;;;;;;8.81;60.13;99361.88;4871738;29;19932;-89
2020/12/27 04:45:44;;;;;;;;;;;;;;;8.79;60.05;99356.69;4873747;29;19935;-88
2020/12/27 04:48:43;;;;;;;;;;;;;;;8.80;60.13;99350.50;4874057;29;19932;-91
2020/12/27 04:51:18;;;;;;;;;;;;;;;8.80;60.21;99339.94;4866107;29;20565;-89
2020/12/27 04:53:56;;;;;;;;;;;;;;;8.78;60.15;99319.84;4885864;29;19937;-88
2020/12/27 04:56:36;;;;;;;;;;;;;;;8.76;60.45;99330.47;4906576;29;20396;-88
2020/12/27 04:59:10;;;;;;;;;;;;;;;8.78;60.23;99317.22;4921405;29;19931;-87
2020/12/27 05:01:39;;;;;;;;;;;;;;;8.79;60.07;99303.09;4905497;29;20404;-89
2020/12/27 05:04:23;;;;;;;;;;;;;;;8.75;60.36;99298.91;4904012;29;19974;-89
2020/12/27 05:07:20;;;;;;;;;;;;;;;8.75;60.20;99297.09;4906505;29;20309;-88
2020/12/27 05:10:17;;;;;;;;;;;;;;;8.74;60.23;99294.53;4918292;29;19939;-91
2020/12/27 05:12:52;;;;;;;;;;;;;;;8.75;60.41;99286.56;4907041;29;19931;-89
2020/12/27 05:15:21;;;;;;;;;;;;;;;8.77;60.49;99290.00;4903754;29;20456;-90
2020/12/27 05:17:49;;;;;;;;;;;;;;;8.76;60.27;99277.72;4901814;29;19927;-88
2020/12/27 05:20:20;;;;;;;;;;;;;;;8.73;60.19;99275.22;4899289;29;20042;-89
2020/12/27 05:22:58;;;;;;;;;;;;;;;8.75;60.14;99283.06;4904352;29;19935;-88
2020/12/27 05:25:39;;;;;;;;;;;;;;;8.72;60.18;99262.97;4906472;29;19933;-88
2020/12/27 05:28:13;;;;;;;;;;;;;;;8.72;60.27;99268.25;4892786;29;20210;-88
2020/12/27 05:31:16;;;;;;;;;;;;;;;8.71;60.46;99265.69;4889515;29;19935;-87
2020/12/27 05:34:03;;;;;;;;;;;;;;;8.66;59.96;99268.50;4903911;29;19934;-87
2020/12/27 05:36:49;;;;;;;;;;;;;;;8.69;60.76;99264.88;4911551;29;19989;-88
2020/12/27 05:39:39;;;;;;;;;;;;;;;8.65;60.46;99253.59;4910602;29;20071;-88
2020/12/27 05:42:25;;;;;;;;;;;;;;;8.63;60.46;99248.41;4907570;29;19978;-88
2020/12/27 05:44:52;;;;;;;;;;;;;;;8.62;60.81;99246.69;4917134;29;19937;-88
2020/12/27 05:47:20;;;;;;;;;;;;;;;8.60;60.17;99232.72;4907528;29;19983;-88
2020/12/27 05:49:48;;;;;;;;;;;;;;;8.61;60.53;99221.22;4925585;29;19941;-88
2020/12/27 05:52:16;;;;;;;;;;;;;;;8.59;60.53;99224.88;4914652;29;19934;-89
2020/12/27 05:55:04;;;;;;;;;;;;;;;8.57;60.63;99216.19;4906892;29;19934;-88
2020/12/27 05:57:41;;;;;;;;;;;;;;;8.57;60.67;99217.03;4924512;29;19938;-88
2020/12/27 06:00:10;;;;;;;;;;;;;;;8.57;60.26;99211.75;4921280;29;20364;-89
2020/12/27 06:13:19;;;;;;;;;;;;;;;8.52;60.61;99170.72;4898415;23;19939;-88
2020/12/27 08:17:34;;;;;;;;;;;;;;;8.82;59.73;98989.19;5825176;23;20147;-75
2020/12/27 09:19:36;;;;;;;;;;;;;;;9.43;60.57;98955.41;5882350;23;19948;-84
2020/12/27 09:54:21;;;;;;;;;;;;;;;9.44;58.57;98881.44;4819941;29;20024;-79
2020/12/27 10:08:15;;;;;;;;;;;;;;;9.28;58.10;98905.13;4763684;30;19926;-79
2020/12/27 10:22:05;;;;;;;;;;;;;;;;;;;;;
2020/12/27 10:29:26;;;;;;;;;;;;;;;9.25;58.35;98834.03;4772197;29;19933;-79
2020/12/27 10:32:21;;;;;;;;;;;;;;;9.24;58.17;98834.97;4781270;29;20360;-79
2020/12/27 10:34:48;;;;;;;;;;;;;;;9.21;58.35;98829.84;4775790;29;20063;-81
2020/12/27 10:37:15;;;;;;;;;;;;;;;9.19;57.55;98826.44;4775713;29;20415;-80
2020/12/27 10:39:42;;;;;;;;;;;;;;;9.18;57.97;98808.06;4770925;30;20421;-80
2020/12/27 10:42:09;;;;;;;;;;;;;;;9.20;57.89;98819.38;4775107;29;20339;-79
2020/12/27 10:44:36;;;;;;;;;;;;;;;9.17;58.06;98816.91;4780175;30;20428;-79
2020/12/27 10:59:45;;;;;;;;;;;;;;;9.05;58.17;98792.88;4680243;30;20136;-80
2020/12/27 11:02:46;;;;;;;;;;;;;;;9.04;58.33;98787.69;4656432;30;20324;-79
2020/12/27 11:05:27;;;;;;;;;;;;;;;9.03;57.95;98784.19;4659826;30;19973;-85
2020/12/27 11:12:07;;;;;;;;;;;;;;;8.96;57.99;98773.09;4764928;29;19929;-78
2020/12/27 11:15:23;;;;;;;;;;;;;;;;;;;;;
2020/12/27 11:18:28;;;;;;;;;;;;;;;8.92;57.39;98758.38;4797906;29;20405;-79
2020/12/27 12:05:57;;;;;;;;;;;;;;;;;;;;;
2020/12/27 13:38:08;;;;;;;;;;;;;;;8.77;56.25;98550.91;5258379;23;19942;-80
2020/12/27 13:40:35;;;;;;;;;;;;;;;8.72;56.27;98559.06;4848875;29;19936;-82
2020/12/27 13:43:12;;;;;;;;;;;;;;;8.70;56.83;98560.94;4856741;29;20452;-78
2020/12/27 13:45:40;;;;;;;;;;;;;;;8.66;56.30;98548.84;4853200;29;19936;-80
2020/12/27 13:48:08;;;;;;;;;;;;;;;8.68;56.17;98528.56;4861173;29;20320;-79
2020/12/27 13:50:34;;;;;;;;;;;;;;;8.69;56.56;98532.03;4858060;29;20016;-84
2020/12/27 13:53:02;;;;;;;;;;;;;;;8.69;56.46;98526.75;4833993;29;19928;-79
2020/12/27 13:55:29;;;;;;;;;;;;;;;8.64;56.31;98513.81;4849267;29;19938;-80
2020/12/27 13:57:56;;;;;;;;;;;;;;;8.64;56.01;98522.59;4843385;29;19928;-78
2020/12/27 14:00:23;;;;;;;;;;;;;;;8.60;56.10;98510.50;4857112;29;19955;-78
2020/12/27 14:02:50;;;;;;;;;;;;;;;8.62;56.19;98529.72;4860187;29;19958;-79
2020/12/27 14:05:16;;;;;;;;;;;;;;;8.58;56.52;98520.28;4858794;29;19928;-80
2020/12/27 14:07:44;;;;;;;;;;;;;;;8.56;56.28;98503.72;4850794;29;19963;-80
2020/12/27 14:10:14;;;;;;;;;;;;;;;8.57;56.10;98501.91;4850409;29;20019;-80
2020/12/27 14:12:43;;;;;;;;;;;;;;;8.56;56.53;98492.31;4854401;29;19932;-80
2020/12/27 14:15:10;;;;;;;;;;;;;;;8.51;56.40;98484.66;4854606;29;20023;-79
2020/12/27 14:17:37;;;;;;;;;;;;;;;8.50;56.51;98479.47;4854738;29;19928;-79
2020/12/27 14:20:04;;;;;;;;;;;;;;;8.52;56.67;98486.34;4859345;29;19932;-78
2020/12/27 14:22:31;;;;;;;;;;;;;;;8.52;56.02;98480.25;4849563;29;19928;-78
2020/12/27 14:24:59;;;;;;;;;;;;;;;8.50;56.25;98471.56;4859576;29;19967;-80
2020/12/27 14:27:26;;;;;;;;;;;;;;;8.50;56.10;98482.09;4855693;29;19977;-79
2020/12/27 14:29:53;;;;;;;;;;;;;;;8.51;56.13;98476.78;4861921;29;19928;-79
2020/12/27 14:32:24;;;;;;;;;;;;;;;8.52;56.10;98491.63;4860639;29;20314;-79
2020/12/27 14:34:55;;;;;;;;;;;;;;;8.55;56.30;98490.59;4847146;29;19938;-81
2020/12/27 14:37:22;;;;;;;;;;;;;;;8.56;56.42;98485.28;4856674;29;20341;-78
2020/12/27 14:39:57;;;;;;;;;;;;;;;8.59;56.32;98485.09;4856881;29;19928;-81
2020/12/27 14:42:24;;;;;;;;;;;;;;;8.59;55.80;98486.88;4859924;29;19932;-78
2020/12/27 14:44:52;;;;;;;;;;;;;;;8.62;55.61;98478.81;4862107;29;19935;-79
2020/12/27 14:47:19;;;;;;;;;;;;;;;8.67;55.95;98471.50;4860226;29;20462;-79
2020/12/27 14:49:46;;;;;;;;;;;;;;;8.71;55.88;98478.28;4852613;29;19964;-79
2020/12/27 14:52:13;;;;;;;;;;;;;;;8.69;55.67;98461.69;4858623;29;20314;-79
2020/12/27 14:54:41;;;;;;;;;;;;;;;8.73;55.80;98475.56;4859148;29;20004;-80
2020/12/27 14:57:08;;;;;;;;;;;;;;;8.73;55.43;98475.56;4857691;29;20015;-80
2020/12/27 14:59:38;;;;;;;;;;;;;;;8.72;55.57;98466.81;4854771;29;19954;-80
2020/12/27 15:02:08;;;;;;;;;;;;;;;8.74;55.79;98472.81;4858763;29;19936;-79
2020/12/27 15:04:36;;;;;;;;;;;;;;;8.73;56.07;98470.28;4860189;29;20016;-80
2020/12/27 15:07:05;;;;;;;;;;;;;;;8.72;55.98;98447.50;4850441;29;20294;-80
2020/12/27 15:09:32;;;;;;;;;;;;;;;8.70;55.62;98463.41;4860194;29;19980;-80
2020/12/27 15:11:59;;;;;;;;;;;;;;;8.67;55.87;98463.59;4854452;29;19964;-80
2020/12/27 15:14:28;;;;;;;;;;;;;;;8.70;55.80;98454.66;4862200;29;20031;-80
2020/12/27 15:16:59;;;;;;;;;;;;;;;8.68;55.79;98473.19;4860715;29;19967;-80
2020/12/27 15:19:34;;;;;;;;;;;;;;;8.67;55.68;98458.31;4859678;29;19935;-79
2020/12/27 15:22:01;;;;;;;;;;;;;;;8.62;55.55;98431.34;4857312;29;20405;-79
2020/12/27 15:24:28;;;;;;;;;;;;;;;8.61;55.97;98441.03;4856694;29;19980;-78
2020/12/27 15:26:55;;;;;;;;;;;;;;;8.61;56.20;98445.47;4850676;29;20333;-80
2020/12/27 15:29:22;;;;;;;;;;;;;;;8.62;55.43;98444.53;4853463;29;19928;-78
2020/12/27 15:31:48;;;;;;;;;;;;;;;8.58;55.73;98449.13;4857401;29;20039;-79
2020/12/27 15:34:15;;;;;;;;;;;;;;;8.58;55.82;98446.50;4855218;29;19928;-79
2020/12/27 15:36:43;;;;;;;;;;;;;;;8.58;56.06;98440.38;4853623;29;20381;-80
2020/12/27 15:39:11;;;;;;;;;;;;;;;8.57;55.56;98447.41;4851511;29;19936;-80
2020/12/27 15:41:39;;;;;;;;;;;;;;;8.55;56.06;98433.50;4858936;29;19936;-79
2020/12/27 15:44:22;;;;;;;;;;;;;;;8.52;55.56;98424.91;4857987;29;19928;-82
2020/12/27 15:46:49;;;;;;;;;;;;;;;8.52;55.60;98415.19;4847438;29;19960;-79
2020/12/27 15:49:16;;;;;;;;;;;;;;;8.49;56.04;98414.53;4858155;29;20416;-80
2020/12/27 15:51:43;;;;;;;;;;;;;;;8.49;55.91;98420.66;4850472;29;20306;-80
2020/12/27 15:54:11;;;;;;;;;;;;;;;8.46;55.80;98407.66;4857367;29;19932;-80
2020/12/27 15:56:39;;;;;;;;;;;;;;;8.45;55.95;98417.34;4855131;29;19971;-79
2020/12/27 15:59:08;;;;;;;;;;;;;;;8.44;55.56;98402.44;4854689;29;19932;-79
2020/12/27 16:01:35;;;;;;;;;;;;;;;8.44;55.35;98391.91;4842158;29;20031;-78
2020/12/27 16:04:02;;;;;;;;;;;;;;;8.42;55.54;98390.28;4859029;29;19932;-80
2020/12/27 16:06:29;;;;;;;;;;;;;;;8.40;55.77;98382.44;4867321;29;19970;-78
2020/12/27 16:08:56;;;;;;;;;;;;;;;8.39;55.44;98388.69;4867906;29;20503;-78
2020/12/27 16:11:28;;;;;;;;;;;;;;;8.32;55.61;98384.69;4859420;29;20298;-78
2020/12/27 16:13:55;;;;;;;;;;;;;;;8.33;55.53;98382.91;4861712;29;19991;-79
2020/12/27 16:16:22;;;;;;;;;;;;;;;8.29;55.98;98382.22;4845208;29;19932;-79
2020/12/27 16:18:48;;;;;;;;;;;;;;;8.30;55.85;98374.22;4863934;29;19932;-79
2020/12/27 16:21:15;;;;;;;;;;;;;;;8.34;55.81;98384.59;4859792;29;20446;-79
2020/12/27 16:23:42;;;;;;;;;;;;;;;8.34;55.80;98381.94;4860400;29;19972;-79
2020/12/27 16:26:10;;;;;;;;;;;;;;;8.31;55.57;98383.84;4853719;29;19928;-80
2020/12/27 16:28:38;;;;;;;;;;;;;;;8.31;55.81;98375.94;4863994;29;19980;-81
2020/12/27 16:31:05;;;;;;;;;;;;;;;8.34;55.83;98387.22;4861505;29;19928;-79
2020/12/27 16:33:32;;;;;;;;;;;;;;;8.37;56.02;98373.91;4845689;29;20031;-79
2020/12/27 16:35:59;;;;;;;;;;;;;;;8.38;55.62;98367.66;4862791;29;19943;-82
2020/12/27 16:38:26;;;;;;;;;;;;;;;8.36;55.97;98362.50;4861995;29;19928;-81
2020/12/27 16:40:53;;;;;;;;;;;;;;;8.40;54.90;98361.38;4854596;29;20390;-80
2020/12/27 16:43:20;;;;;;;;;;;;;;;8.42;55.13;98356.03;4847621;29;20015;-79
2020/12/27 16:45:47;;;;;;;;;;;;;;;8.44;55.24;98368.19;4853809;29;20351;-82
2020/12/27 16:48:15;;;;;;;;;;;;;;;8.49;55.49;98361.84;4859404;29;20026;-80
2020/12/27 18:02:57;;;;;;;;;;;;;;;8.41;56.25;98328.00;4817154;29;20065;-80
2020/12/27 18:20:27;;;;;;;;;;;;;;;8.32;56.69;98324.09;4703607;30;19942;-82
2020/12/27 19:37:26;;;;;;;;;;;;;;;8.53;54.72;98289.59;4814571;29;20028;-80
2020/12/27 19:39:58;;;;;;;;;;;;;;;8.55;54.78;98290.31;4823862;29;19929;-82
2020/12/27 19:42:25;;;;;;;;;;;;;;;8.55;54.20;98295.59;4820318;29;20397;-80
2020/12/27 19:44:52;;;;;;;;;;;;;;;8.54;54.32;98292.13;4815571;29;19929;-81
2020/12/27 19:47:19;;;;;;;;;;;;;;;8.54;54.69;98289.47;4820832;29;19936;-82
2020/12/27 19:49:46;;;;;;;;;;;;;;;8.55;54.63;98279.78;4821827;29;19933;-82
2020/12/27 23:03:12;;;;;;;;;;;;;;;8.52;54.26;98211.47;5263702;23;20647;-80
2020/12/27 23:05:39;;;;;;;;;;;;;;;8.49;53.83;98207.22;4839234;29;19929;-81
2020/12/27 23:08:06;;;;;;;;;;;;;;;8.48;53.82;98200.25;4835516;29;20021;-81
2020/12/27 23:14:13;;;;;;;;;;;;;;;8.43;54.34;98200.50;4829122;29;20429;-79
2020/12/27 23:16:40;;;;;;;;;;;;;;;8.39;53.99;98198.13;4825717;29;19963;-80
2020/12/27 23:19:08;;;;;;;;;;;;;;;8.38;54.35;98196.44;4832042;29;19933;-80
2020/12/27 23:21:37;;;;;;;;;;;;;;;8.37;53.94;98206.13;4824559;29;20035;-79
2020/12/27 23:24:07;;;;;;;;;;;;;;;8.38;54.22;98202.56;4833666;29;20358;-80
2020/12/27 23:26:34;;;;;;;;;;;;;;;8.31;53.87;98202.06;4830442;29;20185;-81
2020/12/27 23:29:02;;;;;;;;;;;;;;;8.30;54.67;98197.75;4828042;29;19936;-82
2020/12/27 23:31:28;;;;;;;;;;;;;;;8.28;54.43;98198.78;4829277;29;19972;-81
2020/12/27 23:33:55;;;;;;;;;;;;;;;8.28;54.15;98199.59;4832279;29;19929;-81
2020/12/27 23:36:26;;;;;;;;;;;;;;;8.28;54.28;98206.66;4835113;29;19941;-80
2020/12/27 23:38:53;;;;;;;;;;;;;;;8.27;54.70;98204.97;4828873;29;19948;-80
2020/12/27 23:41:40;;;;;;;;;;;;;;;8.26;54.69;98206.75;4829131;29;19929;-81
2020/12/27 23:44:07;;;;;;;;;;;;;;;8.26;54.64;98203.25;4824481;29;19928;-81
2020/12/27 23:46:34;;;;;;;;;;;;;;;8.25;54.94;98212.97;4831616;29;20027;-80
2020/12/27 23:49:01;;;;;;;;;;;;;;;8.25;54.88;98212.13;4834941;29;20352;-80
2020/12/27 23:51:35;;;;;;;;;;;;;;;8.26;54.79;98198.00;4831842;29;19937;-80
2020/12/27 23:54:01;;;;;;;;;;;;;;;8.27;54.68;98202.34;4828596;29;19981;-81
2020/12/27 23:56:34;;;;;;;;;;;;;;;8.29;54.58;98196.03;4829679;29;19985;-79
2020/12/27 23:59:00;;;;;;;;;;;;;;;8.31;54.92;98203.84;4832260;29;19933;-81
